sensor_id;sensor_type;location;lat;lon;timestamp;temperature;humidity
38592;DHT22;24356;48.460;11.450;2023-05-14T00:00:21;10.20;88.50
38592;DHT22;24356;48.460;11.450;2023-05-14T00:02:47;10.20;88.10
38592;DHT22;24356;48.460;11.450;2023-05-14T00:05:12;10.20;88.00
38592;DHT22;24356;48.460;11.450;2023-05-14T00:07:38;10.30;88.10
38592;DHT22;24356;48.460;11.450;2023-05-14T00:10:04;10.30;87.90
38592;DHT22;24356;48.460;11.450;2023-05-14T00:12:29;10.30;88.00
38592;DHT22;24356;48.460;11.450;2023-05-14T00:14:55;10.20;87.90
38592;DHT22;24356;48.460;11.450;2023-05-14T00:17:21;10.30;87.80
38592;DHT22;24356;48.460;11.450;2023-05-14T00:19:47;10.30;87.90
38592;DHT22;24356;48.460;11.450;2023-05-14T00:22:13;10.20;88.00
38592;DHT22;24356;48.460;11.450;2023-05-14T00:24:38;10.20;88.00
38592;DHT22;24356;48.460;11.450;2023-05-14T00:27:04;10.30;87.90
38592;DHT22;24356;48.460;11.450;2023-05-14T00:29:31;10.30;87.90
38592;DHT22;24356;48.460;11.450;2023-05-14T00:31:56;10.20;87.80
38592;DHT22;24356;48.460;11.450;2023-05-14T00:34:22;10.30;87.80
38592;DHT22;24356;48.460;11.450;2023-05-14T00:36:47;10.20;87.80
38592;DHT22;24356;48.460;11.450;2023-05-14T00:39:13;10.20;87.90
38592;DHT22;24356;48.460;11.450;2023-05-14T00:41:39;10.20;87.90
38592;DHT22;24356;48.460;11.450;2023-05-14T00:44:04;10.30;87.80
38592;DHT22;24356;48.460;11.450;2023-05-14T00:46:30;10.30;87.90
38592;DHT22;24356;48.460;11.450;2023-05-14T00:48:57;10.20;87.90
38592;DHT22;24356;48.460;11.450;2023-05-14T00:51:24;10.20;87.90
38592;DHT22;24356;48.460;11.450;2023-05-14T00:53:51;10.20;88.00
38592;DHT22;24356;48.460;11.450;2023-05-14T00:56:17;10.20;87.90
38592;DHT22;24356;48.460;11.450;2023-05-14T00:58:43;10.20;87.90
38592;DHT22;24356;48.460;11.450;2023-05-14T01:01:09;10.20;87.80
38592;DHT22;24356;48.460;11.450;2023-05-14T01:03:36;10.20;87.90
38592;DHT22;24356;48.460;11.450;2023-05-14T01:06:17;10.20;87.80
38592;DHT22;24356;48.460;11.450;2023-05-14T01:08:55;10.20;87.90
38592;DHT22;24356;48.460;11.450;2023-05-14T01:11:35;10.20;87.90
38592;DHT22;24356;48.460;11.450;2023-05-14T01:14:21;10.20;88.20
38592;DHT22;24356;48.460;11.450;2023-05-14T01:16:55;10.20;87.80
38592;DHT22;24356;48.460;11.450;2023-05-14T01:19:36;10.20;88.10
38592;DHT22;24356;48.460;11.450;2023-05-14T01:22:02;10.20;88.10
38592;DHT22;24356;48.460;11.450;2023-05-14T01:24:27;10.20;88.00
38592;DHT22;24356;48.460;11.450;2023-05-14T01:26:57;10.20;88.00
38592;DHT22;24356;48.460;11.450;2023-05-14T01:29:26;10.20;87.90
38592;DHT22;24356;48.460;11.450;2023-05-14T01:31:53;10.20;87.90
38592;DHT22;24356;48.460;11.450;2023-05-14T01:34:23;10.20;88.20
38592;DHT22;24356;48.460;11.450;2023-05-14T01:36:50;10.20;88.00
38592;DHT22;24356;48.460;11.450;2023-05-14T01:39:16;10.20;88.00
38592;DHT22;24356;48.460;11.450;2023-05-14T01:41:43;10.20;88.00
38592;DHT22;24356;48.460;11.450;2023-05-14T01:44:09;10.10;88.00
38592;DHT22;24356;48.460;11.450;2023-05-14T01:46:36;10.20;88.00
38592;DHT22;24356;48.460;11.450;2023-05-14T01:49:02;10.10;88.00
38592;DHT22;24356;48.460;11.450;2023-05-14T01:51:27;10.10;87.90
38592;DHT22;24356;48.460;11.450;2023-05-14T01:53:53;10.10;88.00
38592;DHT22;24356;48.460;11.450;2023-05-14T01:56:21;10.10;88.00
38592;DHT22;24356;48.460;11.450;2023-05-14T01:58:48;10.10;87.90
38592;DHT22;24356;48.460;11.450;2023-05-14T02:01:15;10.10;88.00
38592;DHT22;24356;48.460;11.450;2023-05-14T02:03:40;10.10;88.00
38592;DHT22;24356;48.460;11.450;2023-05-14T02:06:06;10.10;87.90
38592;DHT22;24356;48.460;11.450;2023-05-14T02:08:32;10.10;87.90
38592;DHT22;24356;48.460;11.450;2023-05-14T02:10:57;10.10;87.90
38592;DHT22;24356;48.460;11.450;2023-05-14T02:13:24;10.10;88.00
38592;DHT22;24356;48.460;11.450;2023-05-14T02:15:50;10.10;87.90
38592;DHT22;24356;48.460;11.450;2023-05-14T02:18:16;10.10;88.00
38592;DHT22;24356;48.460;11.450;2023-05-14T02:20:41;10.10;88.00
38592;DHT22;24356;48.460;11.450;2023-05-14T02:23:07;10.10;88.10
38592;DHT22;24356;48.460;11.450;2023-05-14T02:25:33;10.10;88.00
38592;DHT22;24356;48.460;11.450;2023-05-14T02:27:58;10.10;88.00
38592;DHT22;24356;48.460;11.450;2023-05-14T02:30:24;10.10;88.00
38592;DHT22;24356;48.460;11.450;2023-05-14T02:32:49;10.10;88.00
38592;DHT22;24356;48.460;11.450;2023-05-14T02:35:15;10.10;88.00
38592;DHT22;24356;48.460;11.450;2023-05-14T02:37:42;10.10;88.00
38592;DHT22;24356;48.460;11.450;2023-05-14T02:40:08;10.10;88.00
38592;DHT22;24356;48.460;11.450;2023-05-14T02:42:34;10.10;88.00
38592;DHT22;24356;48.460;11.450;2023-05-14T02:44:59;10.10;87.90
38592;DHT22;24356;48.460;11.450;2023-05-14T02:47:25;10.10;88.10
38592;DHT22;24356;48.460;11.450;2023-05-14T02:49:51;10.00;88.00
38592;DHT22;24356;48.460;11.450;2023-05-14T02:52:16;10.00;88.10
38592;DHT22;24356;48.460;11.450;2023-05-14T02:54:42;10.00;88.10
38592;DHT22;24356;48.460;11.450;2023-05-14T02:57:07;10.00;88.00
38592;DHT22;24356;48.460;11.450;2023-05-14T02:59:35;10.00;88.00
38592;DHT22;24356;48.460;11.450;2023-05-14T03:02:00;10.00;87.90
38592;DHT22;24356;48.460;11.450;2023-05-14T03:04:26;10.00;88.10
38592;DHT22;24356;48.460;11.450;2023-05-14T03:06:51;10.00;88.00
38592;DHT22;24356;48.460;11.450;2023-05-14T03:09:17;10.00;88.00
38592;DHT22;24356;48.460;11.450;2023-05-14T03:11:43;10.00;88.10
38592;DHT22;24356;48.460;11.450;2023-05-14T03:14:08;10.00;88.10
38592;DHT22;24356;48.460;11.450;2023-05-14T03:16:34;10.00;88.10
38592;DHT22;24356;48.460;11.450;2023-05-14T03:19:00;10.00;88.10
38592;DHT22;24356;48.460;11.450;2023-05-14T03:21:25;10.00;88.00
38592;DHT22;24356;48.460;11.450;2023-05-14T03:23:52;10.00;88.10
38592;DHT22;24356;48.460;11.450;2023-05-14T03:26:18;10.00;88.10
38592;DHT22;24356;48.460;11.450;2023-05-14T03:28:43;10.00;88.20
38592;DHT22;24356;48.460;11.450;2023-05-14T03:31:09;10.00;88.10
38592;DHT22;24356;48.460;11.450;2023-05-14T03:33:35;10.00;88.00
38592;DHT22;24356;48.460;11.450;2023-05-14T03:36:01;10.00;88.20
38592;DHT22;24356;48.460;11.450;2023-05-14T03:38:26;10.00;88.10
38592;DHT22;24356;48.460;11.450;2023-05-14T03:40:52;10.00;88.10
38592;DHT22;24356;48.460;11.450;2023-05-14T03:43:18;10.00;88.10
38592;DHT22;24356;48.460;11.450;2023-05-14T03:45:43;10.00;88.00
38592;DHT22;24356;48.460;11.450;2023-05-14T03:48:09;10.00;88.10
38592;DHT22;24356;48.460;11.450;2023-05-14T03:50:35;10.00;88.00
38592;DHT22;24356;48.460;11.450;2023-05-14T03:53:00;10.00;88.00
38592;DHT22;24356;48.460;11.450;2023-05-14T03:55:26;10.00;88.10
38592;DHT22;24356;48.460;11.450;2023-05-14T03:57:51;10.00;88.00
38592;DHT22;24356;48.460;11.450;2023-05-14T04:00:17;10.00;88.10
38592;DHT22;24356;48.460;11.450;2023-05-14T04:02:43;10.00;88.20
38592;DHT22;24356;48.460;11.450;2023-05-14T04:05:08;10.00;88.10
38592;DHT22;24356;48.460;11.450;2023-05-14T04:07:34;10.00;88.10
38592;DHT22;24356;48.460;11.450;2023-05-14T04:10:01;10.00;88.10
38592;DHT22;24356;48.460;11.450;2023-05-14T04:12:27;10.00;88.00
38592;DHT22;24356;48.460;11.450;2023-05-14T04:14:52;10.00;88.10
38592;DHT22;24356;48.460;11.450;2023-05-14T04:17:18;10.00;88.10
38592;DHT22;24356;48.460;11.450;2023-05-14T04:19:44;10.00;88.10
38592;DHT22;24356;48.460;11.450;2023-05-14T04:22:09;10.00;88.00
38592;DHT22;24356;48.460;11.450;2023-05-14T04:24:35;10.00;88.10
38592;DHT22;24356;48.460;11.450;2023-05-14T04:27:01;10.00;88.20
38592;DHT22;24356;48.460;11.450;2023-05-14T04:29:26;10.00;88.20
38592;DHT22;24356;48.460;11.450;2023-05-14T04:31:52;10.00;88.20
38592;DHT22;24356;48.460;11.450;2023-05-14T04:34:18;10.10;88.20
38592;DHT22;24356;48.460;11.450;2023-05-14T04:36:43;10.10;88.30
38592;DHT22;24356;48.460;11.450;2023-05-14T04:39:09;10.10;88.30
38592;DHT22;24356;48.460;11.450;2023-05-14T04:41:37;10.10;88.50
38592;DHT22;24356;48.460;11.450;2023-05-14T04:44:03;10.10;88.40
38592;DHT22;24356;48.460;11.450;2023-05-14T04:46:29;10.10;88.50
38592;DHT22;24356;48.460;11.450;2023-05-14T04:48:54;10.10;88.50
38592;DHT22;24356;48.460;11.450;2023-05-14T04:51:23;10.10;88.50
38592;DHT22;24356;48.460;11.450;2023-05-14T04:53:49;10.10;88.50
38592;DHT22;24356;48.460;11.450;2023-05-14T04:56:15;10.10;88.50
38592;DHT22;24356;48.460;11.450;2023-05-14T04:58:40;10.10;88.60
38592;DHT22;24356;48.460;11.450;2023-05-14T05:01:06;10.10;88.60
38592;DHT22;24356;48.460;11.450;2023-05-14T05:03:31;10.20;88.70
38592;DHT22;24356;48.460;11.450;2023-05-14T05:05:57;10.20;88.60
38592;DHT22;24356;48.460;11.450;2023-05-14T05:08:23;10.20;88.70
38592;DHT22;24356;48.460;11.450;2023-05-14T05:10:48;10.20;88.70
38592;DHT22;24356;48.460;11.450;2023-05-14T05:13:14;10.20;88.70
38592;DHT22;24356;48.460;11.450;2023-05-14T05:15:42;10.20;88.70
38592;DHT22;24356;48.460;11.450;2023-05-14T05:18:07;10.30;88.70
38592;DHT22;24356;48.460;11.450;2023-05-14T05:20:33;10.30;88.60
38592;DHT22;24356;48.460;11.450;2023-05-14T05:22:59;10.30;88.70
38592;DHT22;24356;48.460;11.450;2023-05-14T05:25:24;10.30;88.70
38592;DHT22;24356;48.460;11.450;2023-05-14T05:27:50;10.30;88.70
38592;DHT22;24356;48.460;11.450;2023-05-14T05:30:15;10.40;88.70
38592;DHT22;24356;48.460;11.450;2023-05-14T05:32:41;10.40;88.60
38592;DHT22;24356;48.460;11.450;2023-05-14T05:35:07;10.40;88.70
38592;DHT22;24356;48.460;11.450;2023-05-14T05:37:33;10.40;88.70
38592;DHT22;24356;48.460;11.450;2023-05-14T05:39:58;10.40;88.60
38592;DHT22;24356;48.460;11.450;2023-05-14T05:42:24;10.40;88.60
38592;DHT22;24356;48.460;11.450;2023-05-14T05:44:50;10.40;88.60
38592;DHT22;24356;48.460;11.450;2023-05-14T05:47:15;10.50;88.70
38592;DHT22;24356;48.460;11.450;2023-05-14T05:49:41;10.50;88.70
38592;DHT22;24356;48.460;11.450;2023-05-14T05:52:07;10.50;88.90
38592;DHT22;24356;48.460;11.450;2023-05-14T05:54:33;10.50;88.70
38592;DHT22;24356;48.460;11.450;2023-05-14T05:56:59;10.50;88.80
38592;DHT22;24356;48.460;11.450;2023-05-14T05:59:25;10.50;88.80
38592;DHT22;24356;48.460;11.450;2023-05-14T06:01:50;10.50;88.90
38592;DHT22;24356;48.460;11.450;2023-05-14T06:04:16;10.50;88.70
38592;DHT22;24356;48.460;11.450;2023-05-14T06:06:43;10.50;88.90
38592;DHT22;24356;48.460;11.450;2023-05-14T06:09:09;10.50;89.00
38592;DHT22;24356;48.460;11.450;2023-05-14T06:11:35;10.60;88.60
38592;DHT22;24356;48.460;11.450;2023-05-14T06:14:00;10.60;88.80
38592;DHT22;24356;48.460;11.450;2023-05-14T06:16:26;10.60;88.80
38592;DHT22;24356;48.460;11.450;2023-05-14T06:18:52;10.60;88.80
38592;DHT22;24356;48.460;11.450;2023-05-14T06:21:19;10.60;88.80
38592;DHT22;24356;48.460;11.450;2023-05-14T06:23:45;10.60;88.60
38592;DHT22;24356;48.460;11.450;2023-05-14T06:26:10;10.60;88.80
38592;DHT22;24356;48.460;11.450;2023-05-14T06:28:36;10.70;88.80
38592;DHT22;24356;48.460;11.450;2023-05-14T06:31:02;10.70;88.60
38592;DHT22;24356;48.460;11.450;2023-05-14T06:33:28;10.70;88.40
38592;DHT22;24356;48.460;11.450;2023-05-14T06:36:02;10.70;88.70
38592;DHT22;24356;48.460;11.450;2023-05-14T06:38:27;10.70;88.70
38592;DHT22;24356;48.460;11.450;2023-05-14T06:40:53;10.70;88.90
38592;DHT22;24356;48.460;11.450;2023-05-14T06:43:19;10.70;88.70
38592;DHT22;24356;48.460;11.450;2023-05-14T06:45:48;10.80;88.60
38592;DHT22;24356;48.460;11.450;2023-05-14T06:48:14;10.80;88.60
38592;DHT22;24356;48.460;11.450;2023-05-14T06:50:39;10.80;88.40
38592;DHT22;24356;48.460;11.450;2023-05-14T06:53:10;10.80;88.60
38592;DHT22;24356;48.460;11.450;2023-05-14T06:55:36;10.80;88.30
38592;DHT22;24356;48.460;11.450;2023-05-14T06:58:01;10.80;88.30
38592;DHT22;24356;48.460;11.450;2023-05-14T07:00:27;10.90;88.50
38592;DHT22;24356;48.460;11.450;2023-05-14T07:02:53;10.90;88.30
38592;DHT22;24356;48.460;11.450;2023-05-14T07:05:18;10.90;87.90
38592;DHT22;24356;48.460;11.450;2023-05-14T07:07:44;10.90;88.50
38592;DHT22;24356;48.460;11.450;2023-05-14T07:10:10;10.90;88.20
38592;DHT22;24356;48.460;11.450;2023-05-14T07:12:35;10.90;88.00
38592;DHT22;24356;48.460;11.450;2023-05-14T07:15:01;11.00;88.00
38592;DHT22;24356;48.460;11.450;2023-05-14T07:17:27;11.00;88.20
38592;DHT22;24356;48.460;11.450;2023-05-14T07:19:52;11.00;88.10
38592;DHT22;24356;48.460;11.450;2023-05-14T07:22:20;11.00;88.20
38592;DHT22;24356;48.460;11.450;2023-05-14T07:24:46;11.00;88.30
38592;DHT22;24356;48.460;11.450;2023-05-14T07:27:12;11.10;88.00
38592;DHT22;24356;48.460;11.450;2023-05-14T07:29:37;11.10;88.20
38592;DHT22;24356;48.460;11.450;2023-05-14T07:32:03;11.10;88.00
38592;DHT22;24356;48.460;11.450;2023-05-14T07:34:29;11.10;87.90
38592;DHT22;24356;48.460;11.450;2023-05-14T07:36:54;11.20;88.00
38592;DHT22;24356;48.460;11.450;2023-05-14T07:39:20;11.20;88.00
38592;DHT22;24356;48.460;11.450;2023-05-14T07:41:46;11.20;88.00
38592;DHT22;24356;48.460;11.450;2023-05-14T07:44:11;11.30;88.00
38592;DHT22;24356;48.460;11.450;2023-05-14T07:46:37;11.30;87.90
38592;DHT22;24356;48.460;11.450;2023-05-14T07:49:03;11.30;87.90
38592;DHT22;24356;48.460;11.450;2023-05-14T07:51:29;11.30;87.80
38592;DHT22;24356;48.460;11.450;2023-05-14T07:53:56;11.40;87.80
38592;DHT22;24356;48.460;11.450;2023-05-14T07:56:21;11.40;87.90
38592;DHT22;24356;48.460;11.450;2023-05-14T07:58:47;11.50;87.70
38592;DHT22;24356;48.460;11.450;2023-05-14T08:01:13;11.50;87.70
38592;DHT22;24356;48.460;11.450;2023-05-14T08:03:39;11.60;87.70
38592;DHT22;24356;48.460;11.450;2023-05-14T08:06:04;11.60;87.70
38592;DHT22;24356;48.460;11.450;2023-05-14T08:08:30;11.70;87.70
38592;DHT22;24356;48.460;11.450;2023-05-14T08:10:56;11.70;87.60
38592;DHT22;24356;48.460;11.450;2023-05-14T08:13:21;11.80;87.40
38592;DHT22;24356;48.460;11.450;2023-05-14T08:15:48;11.90;87.30
38592;DHT22;24356;48.460;11.450;2023-05-14T08:18:14;12.00;87.20
38592;DHT22;24356;48.460;11.450;2023-05-14T08:20:40;12.10;87.00
38592;DHT22;24356;48.460;11.450;2023-05-14T08:23:06;12.10;86.90
38592;DHT22;24356;48.460;11.450;2023-05-14T08:25:32;12.20;86.80
38592;DHT22;24356;48.460;11.450;2023-05-14T08:27:58;12.20;86.60
38592;DHT22;24356;48.460;11.450;2023-05-14T08:30:24;12.30;86.60
38592;DHT22;24356;48.460;11.450;2023-05-14T08:32:50;12.30;86.60
38592;DHT22;24356;48.460;11.450;2023-05-14T08:35:19;12.30;86.40
38592;DHT22;24356;48.460;11.450;2023-05-14T08:37:45;12.40;86.30
38592;DHT22;24356;48.460;11.450;2023-05-14T08:40:11;12.40;86.40
38592;DHT22;24356;48.460;11.450;2023-05-14T08:42:38;12.50;86.30
38592;DHT22;24356;48.460;11.450;2023-05-14T08:45:15;12.60;86.30
38592;DHT22;24356;48.460;11.450;2023-05-14T08:47:47;12.70;86.10
38592;DHT22;24356;48.460;11.450;2023-05-14T08:50:15;12.80;86.10
38592;DHT22;24356;48.460;11.450;2023-05-14T08:52:41;12.90;85.70
38592;DHT22;24356;48.460;11.450;2023-05-14T08:55:07;13.00;85.70
38592;DHT22;24356;48.460;11.450;2023-05-14T08:57:34;13.10;85.40
38592;DHT22;24356;48.460;11.450;2023-05-14T09:00:01;13.20;85.30
38592;DHT22;24356;48.460;11.450;2023-05-14T09:02:33;13.20;85.30
38592;DHT22;24356;48.460;11.450;2023-05-14T09:05:00;13.30;85.50
38592;DHT22;24356;48.460;11.450;2023-05-14T09:07:26;13.30;85.10
38592;DHT22;24356;48.460;11.450;2023-05-14T09:09:52;13.40;84.80
38592;DHT22;24356;48.460;11.450;2023-05-14T09:12:19;13.40;84.70
38592;DHT22;24356;48.460;11.450;2023-05-14T09:14:48;13.40;84.80
38592;DHT22;24356;48.460;11.450;2023-05-14T09:17:14;13.50;84.60
38592;DHT22;24356;48.460;11.450;2023-05-14T09:19:40;13.50;84.50
38592;DHT22;24356;48.460;11.450;2023-05-14T09:22:12;13.50;84.50
38592;DHT22;24356;48.460;11.450;2023-05-14T09:24:38;13.50;84.50
38592;DHT22;24356;48.460;11.450;2023-05-14T09:27:05;13.50;84.50
38592;DHT22;24356;48.460;11.450;2023-05-14T09:29:31;13.60;84.60
38592;DHT22;24356;48.460;11.450;2023-05-14T09:31:57;13.60;84.60
38592;DHT22;24356;48.460;11.450;2023-05-14T09:34:28;13.70;84.50
38592;DHT22;24356;48.460;11.450;2023-05-14T09:37:00;13.80;84.80
38592;DHT22;24356;48.460;11.450;2023-05-14T09:39:26;13.90;84.70
38592;DHT22;24356;48.460;11.450;2023-05-14T09:41:52;14.00;84.50
38592;DHT22;24356;48.460;11.450;2023-05-14T09:44:19;14.10;84.30
38592;DHT22;24356;48.460;11.450;2023-05-14T09:46:45;14.20;84.20
38592;DHT22;24356;48.460;11.450;2023-05-14T09:49:11;14.30;84.10
38592;DHT22;24356;48.460;11.450;2023-05-14T09:51:37;14.40;84.00
38592;DHT22;24356;48.460;11.450;2023-05-14T09:54:04;14.50;84.10
38592;DHT22;24356;48.460;11.450;2023-05-14T09:56:30;14.50;83.60
38592;DHT22;24356;48.460;11.450;2023-05-14T09:58:56;14.60;83.60
38592;DHT22;24356;48.460;11.450;2023-05-14T10:01:22;14.70;83.20
38592;DHT22;24356;48.460;11.450;2023-05-14T10:03:49;14.70;82.90
38592;DHT22;24356;48.460;11.450;2023-05-14T10:06:18;14.80;82.60
38592;DHT22;24356;48.460;11.450;2023-05-14T10:08:47;14.80;82.50
38592;DHT22;24356;48.460;11.450;2023-05-14T10:11:18;14.80;82.40
38592;DHT22;24356;48.460;11.450;2023-05-14T10:13:59;14.90;82.40
38592;DHT22;24356;48.460;11.450;2023-05-14T10:16:29;14.90;82.70
38592;DHT22;24356;48.460;11.450;2023-05-14T10:19:02;15.00;82.60
38592;DHT22;24356;48.460;11.450;2023-05-14T10:21:31;15.10;82.80
38592;DHT22;24356;48.460;11.450;2023-05-14T10:23:59;15.20;82.50
38592;DHT22;24356;48.460;11.450;2023-05-14T10:26:25;15.30;82.30
38592;DHT22;24356;48.460;11.450;2023-05-14T10:28:50;15.40;82.00
38592;DHT22;24356;48.460;11.450;2023-05-14T10:31:16;15.60;81.80
38592;DHT22;24356;48.460;11.450;2023-05-14T10:33:46;15.70;81.80
38592;DHT22;24356;48.460;11.450;2023-05-14T10:36:14;15.80;81.90
38592;DHT22;24356;48.460;11.450;2023-05-14T10:38:40;15.90;81.40
38592;DHT22;24356;48.460;11.450;2023-05-14T10:41:10;16.00;81.40
38592;DHT22;24356;48.460;11.450;2023-05-14T10:43:39;16.20;81.10
38592;DHT22;24356;48.460;11.450;2023-05-14T10:46:07;16.30;80.90
38592;DHT22;24356;48.460;11.450;2023-05-14T10:48:36;16.50;80.80
38592;DHT22;24356;48.460;11.450;2023-05-14T10:51:02;16.70;80.30
38592;DHT22;24356;48.460;11.450;2023-05-14T10:53:38;16.90;80.40
38592;DHT22;24356;48.460;11.450;2023-05-14T10:56:09;17.10;80.30
38592;DHT22;24356;48.460;11.450;2023-05-14T10:58:44;17.30;80.60
38592;DHT22;24356;48.460;11.450;2023-05-14T11:01:11;17.40;79.50
38592;DHT22;24356;48.460;11.450;2023-05-14T11:03:43;17.60;79.10
38592;DHT22;24356;48.460;11.450;2023-05-14T11:06:11;17.70;78.30
38592;DHT22;24356;48.460;11.450;2023-05-14T11:08:38;17.80;78.70
38592;DHT22;24356;48.460;11.450;2023-05-14T11:11:05;17.80;77.50
38592;DHT22;24356;48.460;11.450;2023-05-14T11:13:30;17.80;77.50
38592;DHT22;24356;48.460;11.450;2023-05-14T11:16:00;17.80;77.40
38592;DHT22;24356;48.460;11.450;2023-05-14T11:18:27;17.80;77.50
38592;DHT22;24356;48.460;11.450;2023-05-14T11:20:56;17.90;77.50
38592;DHT22;24356;48.460;11.450;2023-05-14T11:23:23;17.90;77.30
38592;DHT22;24356;48.460;11.450;2023-05-14T11:25:51;18.00;77.20
38592;DHT22;24356;48.460;11.450;2023-05-14T11:28:22;18.00;77.10
38592;DHT22;24356;48.460;11.450;2023-05-14T11:30:49;18.10;76.70
38592;DHT22;24356;48.460;11.450;2023-05-14T11:33:15;18.10;76.60
38592;DHT22;24356;48.460;11.450;2023-05-14T11:35:41;18.20;76.40
38592;DHT22;24356;48.460;11.450;2023-05-14T11:38:27;18.20;76.00
38592;DHT22;24356;48.460;11.450;2023-05-14T11:40:55;18.20;76.20
38592;DHT22;24356;48.460;11.450;2023-05-14T11:43:21;18.30;76.00
38592;DHT22;24356;48.460;11.450;2023-05-14T11:45:53;18.40;75.80
38592;DHT22;24356;48.460;11.450;2023-05-14T11:48:20;18.40;75.60
38592;DHT22;24356;48.460;11.450;2023-05-14T11:50:50;18.50;75.60
38592;DHT22;24356;48.460;11.450;2023-05-14T11:53:24;18.50;75.70
38592;DHT22;24356;48.460;11.450;2023-05-14T11:55:52;18.60;75.50
38592;DHT22;24356;48.460;11.450;2023-05-14T11:58:19;18.70;75.40
38592;DHT22;24356;48.460;11.450;2023-05-14T12:00:45;18.80;76.00
38592;DHT22;24356;48.460;11.450;2023-05-14T12:03:11;18.90;75.70
38592;DHT22;24356;48.460;11.450;2023-05-14T12:05:38;19.00;75.50
38592;DHT22;24356;48.460;11.450;2023-05-14T12:08:19;19.00;75.40
38592;DHT22;24356;48.460;11.450;2023-05-14T12:10:46;19.10;75.30
38592;DHT22;24356;48.460;11.450;2023-05-14T12:13:14;19.20;75.30
38592;DHT22;24356;48.460;11.450;2023-05-14T12:15:44;19.40;75.70
38592;DHT22;24356;48.460;11.450;2023-05-14T12:18:09;19.50;75.10
38592;DHT22;24356;48.460;11.450;2023-05-14T12:20:35;19.60;75.00
38592;DHT22;24356;48.460;11.450;2023-05-14T12:23:01;19.70;74.90
38592;DHT22;24356;48.460;11.450;2023-05-14T12:25:28;19.80;74.80
38592;DHT22;24356;48.460;11.450;2023-05-14T12:27:53;19.90;74.90
38592;DHT22;24356;48.460;11.450;2023-05-14T12:30:19;20.00;74.30
38592;DHT22;24356;48.460;11.450;2023-05-14T12:32:45;20.10;74.30
38592;DHT22;24356;48.460;11.450;2023-05-14T12:35:12;20.10;74.10
38592;DHT22;24356;48.460;11.450;2023-05-14T12:37:38;20.20;73.80
38592;DHT22;24356;48.460;11.450;2023-05-14T12:40:06;20.20;73.70
38592;DHT22;24356;48.460;11.450;2023-05-14T12:42:34;20.20;73.40
38592;DHT22;24356;48.460;11.450;2023-05-14T12:45:00;20.20;73.40
38592;DHT22;24356;48.460;11.450;2023-05-14T12:47:30;20.20;73.40
38592;DHT22;24356;48.460;11.450;2023-05-14T12:49:56;20.20;73.10
38592;DHT22;24356;48.460;11.450;2023-05-14T12:52:22;20.10;72.70
38592;DHT22;24356;48.460;11.450;2023-05-14T12:54:47;20.00;72.40
38592;DHT22;24356;48.460;11.450;2023-05-14T12:57:13;19.90;72.30
38592;DHT22;24356;48.460;11.450;2023-05-14T12:59:39;19.80;72.20
38592;DHT22;24356;48.460;11.450;2023-05-14T13:02:05;19.80;72.20
38592;DHT22;24356;48.460;11.450;2023-05-14T13:04:31;19.70;72.30
38592;DHT22;24356;48.460;11.450;2023-05-14T13:06:57;19.60;72.70
38592;DHT22;24356;48.460;11.450;2023-05-14T13:09:23;19.70;73.10
38592;DHT22;24356;48.460;11.450;2023-05-14T13:11:49;19.70;73.30
38592;DHT22;24356;48.460;11.450;2023-05-14T13:14:15;19.80;73.40
38592;DHT22;24356;48.460;11.450;2023-05-14T13:16:41;19.90;73.40
38592;DHT22;24356;48.460;11.450;2023-05-14T13:19:07;20.00;73.30
38592;DHT22;24356;48.460;11.450;2023-05-14T13:21:32;20.00;73.00
38592;DHT22;24356;48.460;11.450;2023-05-14T13:23:59;20.00;73.10
38592;DHT22;24356;48.460;11.450;2023-05-14T13:26:24;20.00;73.20
38592;DHT22;24356;48.460;11.450;2023-05-14T13:28:52;20.10;73.20
38592;DHT22;24356;48.460;11.450;2023-05-14T13:31:18;20.10;73.60
38592;DHT22;24356;48.460;11.450;2023-05-14T13:33:44;20.30;74.00
38592;DHT22;24356;48.460;11.450;2023-05-14T13:36:12;20.50;74.10
38592;DHT22;24356;48.460;11.450;2023-05-14T13:38:38;20.60;74.10
38592;DHT22;24356;48.460;11.450;2023-05-14T13:41:04;20.70;74.20
38592;DHT22;24356;48.460;11.450;2023-05-14T13:43:31;20.80;74.40
38592;DHT22;24356;48.460;11.450;2023-05-14T13:45:57;21.00;74.90
38592;DHT22;24356;48.460;11.450;2023-05-14T13:48:23;21.10;75.00
38592;DHT22;24356;48.460;11.450;2023-05-14T13:50:49;21.20;75.20
38592;DHT22;24356;48.460;11.450;2023-05-14T13:53:19;21.30;75.00
38592;DHT22;24356;48.460;11.450;2023-05-14T13:55:45;21.40;74.20
38592;DHT22;24356;48.460;11.450;2023-05-14T13:58:12;21.40;73.80
38592;DHT22;24356;48.460;11.450;2023-05-14T14:00:37;21.40;73.40
38592;DHT22;24356;48.460;11.450;2023-05-14T14:03:04;21.50;72.90
38592;DHT22;24356;48.460;11.450;2023-05-14T14:05:30;21.50;72.50
38592;DHT22;24356;48.460;11.450;2023-05-14T14:07:56;21.40;72.00
38592;DHT22;24356;48.460;11.450;2023-05-14T14:10:21;21.40;71.50
38592;DHT22;24356;48.460;11.450;2023-05-14T14:12:48;21.30;71.60
38592;DHT22;24356;48.460;11.450;2023-05-14T14:15:15;21.30;72.20
38592;DHT22;24356;48.460;11.450;2023-05-14T14:17:40;21.30;72.40
38592;DHT22;24356;48.460;11.450;2023-05-14T14:20:10;21.40;72.20
38592;DHT22;24356;48.460;11.450;2023-05-14T14:22:36;21.40;72.20
38592;DHT22;24356;48.460;11.450;2023-05-14T14:25:02;21.30;71.50
38592;DHT22;24356;48.460;11.450;2023-05-14T14:27:29;21.30;70.80
38592;DHT22;24356;48.460;11.450;2023-05-14T14:30:06;21.20;70.70
38592;DHT22;24356;48.460;11.450;2023-05-14T14:32:32;21.10;70.90
38592;DHT22;24356;48.460;11.450;2023-05-14T14:34:57;21.00;71.20
38592;DHT22;24356;48.460;11.450;2023-05-14T14:37:24;20.90;71.50
38592;DHT22;24356;48.460;11.450;2023-05-14T14:39:50;20.80;72.00
38592;DHT22;24356;48.460;11.450;2023-05-14T14:42:15;20.90;73.00
38592;DHT22;24356;48.460;11.450;2023-05-14T14:44:41;21.10;73.20
38592;DHT22;24356;48.460;11.450;2023-05-14T14:47:07;21.30;73.60
38592;DHT22;24356;48.460;11.450;2023-05-14T14:49:32;21.50;73.20
38592;DHT22;24356;48.460;11.450;2023-05-14T14:51:58;21.60;73.10
38592;DHT22;24356;48.460;11.450;2023-05-14T14:54:23;21.60;72.70
38592;DHT22;24356;48.460;11.450;2023-05-14T14:56:49;21.60;72.00
38592;DHT22;24356;48.460;11.450;2023-05-14T14:59:16;21.50;71.10
38592;DHT22;24356;48.460;11.450;2023-05-14T15:01:42;21.30;70.50
38592;DHT22;24356;48.460;11.450;2023-05-14T15:04:08;21.20;70.60
38592;DHT22;24356;48.460;11.450;2023-05-14T15:06:33;20.90;69.80
38592;DHT22;24356;48.460;11.450;2023-05-14T15:08:59;20.70;71.50
38592;DHT22;24356;48.460;11.450;2023-05-14T15:11:25;20.70;72.90